sensor_id;sensor_type;location;lat;lon;timestamp;temperature;humidity
6863;DHT22;3470;48.738;9.616;2023-06-22T00:00:52;19.00;99.90
6863;DHT22;3470;48.738;9.616;2023-06-22T00:03:19;19.00;99.90
6863;DHT22;3470;48.738;9.616;2023-06-22T00:05:49;18.90;99.90
6863;DHT22;3470;48.738;9.616;2023-06-22T00:08:15;18.90;99.90
6863;DHT22;3470;48.738;9.616;2023-06-22T00:10:42;18.80;99.90
6863;DHT22;3470;48.738;9.616;2023-06-22T00:13:08;18.80;99.90
6863;DHT22;3470;48.738;9.616;2023-06-22T00:15:35;18.70;99.90
6863;DHT22;3470;48.738;9.616;2023-06-22T00:18:01;18.60;99.90
6863;DHT22;3470;48.738;9.616;2023-06-22T00:20:28;18.60;99.90
6863;DHT22;3470;48.738;9.616;2023-06-22T00:22:54;18.50;99.90
6863;DHT22;3470;48.738;9.616;2023-06-22T00:25:20;18.50;99.90
6863;DHT22;3470;48.738;9.616;2023-06-22T00:27:46;18.40;99.90
6863;DHT22;3470;48.738;9.616;2023-06-22T00:30:12;18.40;99.90
6863;DHT22;3470;48.738;9.616;2023-06-22T00:32:37;18.40;99.90
6863;DHT22;3470;48.738;9.616;2023-06-22T00:35:03;18.40;99.90
6863;DHT22;3470;48.738;9.616;2023-06-22T00:37:29;18.30;99.90
6863;DHT22;3470;48.738;9.616;2023-06-22T00:39:55;18.30;99.90
6863;DHT22;3470;48.738;9.616;2023-06-22T00:42:21;18.30;99.90
6863;DHT22;3470;48.738;9.616;2023-06-22T00:44:47;18.30;99.90
6863;DHT22;3470;48.738;9.616;2023-06-22T00:47:17;18.40;99.90
6863;DHT22;3470;48.738;9.616;2023-06-22T00:49:43;18.40;99.90
6863;DHT22;3470;48.738;9.616;2023-06-22T00:52:09;18.30;99.90
6863;DHT22;3470;48.738;9.616;2023-06-22T00:54:40;18.30;99.90
6863;DHT22;3470;48.738;9.616;2023-06-22T00:57:05;18.30;99.90
6863;DHT22;3470;48.738;9.616;2023-06-22T00:59:36;18.20;99.90
6863;DHT22;3470;48.738;9.616;2023-06-22T01:02:01;18.20;99.90
6863;DHT22;3470;48.738;9.616;2023-06-22T01:04:35;18.10;99.90
6863;DHT22;3470;48.738;9.616;2023-06-22T01:10:07;18.10;99.90
6863;DHT22;3470;48.738;9.616;2023-06-22T01:12:35;18.00;99.90
6863;DHT22;3470;48.738;9.616;2023-06-22T01:15:10;18.00;99.90
6863;DHT22;3470;48.738;9.616;2023-06-22T01:17:40;18.00;99.90
6863;DHT22;3470;48.738;9.616;2023-06-22T01:20:09;18.00;99.90
6863;DHT22;3470;48.738;9.616;2023-06-22T01:23:17;17.90;99.90
6863;DHT22;3470;48.738;9.616;2023-06-22T01:25:47;17.90;99.90
6863;DHT22;3470;48.738;9.616;2023-06-22T01:28:46;17.90;99.90
6863;DHT22;3470;48.738;9.616;2023-06-22T01:31:18;17.90;99.90
6863;DHT22;3470;48.738;9.616;2023-06-22T12:34:47;41.20;54.10
6863;DHT22;3470;48.738;9.616;2023-06-22T12:37:13;41.60;52.90
6863;DHT22;3470;48.738;9.616;2023-06-22T12:39:40;41.10;53.80
6863;DHT22;3470;48.738;9.616;2023-06-22T12:42:07;40.50;54.40
6863;DHT22;3470;48.738;9.616;2023-06-22T12:44:34;39.70;55.80
6863;DHT22;3470;48.738;9.616;2023-06-22T12:47:00;38.60;56.20
6863;DHT22;3470;48.738;9.616;2023-06-22T12:49:26;38.10;58.10
6863;DHT22;3470;48.738;9.616;2023-06-22T12:51:51;37.90;56.60
6863;DHT22;3470;48.738;9.616;2023-06-22T12:54:17;37.20;58.20
6863;DHT22;3470;48.738;9.616;2023-06-22T12:56:43;36.70;58.40
6863;DHT22;3470;48.738;9.616;2023-06-22T12:59:10;36.20;59.50
6863;DHT22;3470;48.738;9.616;2023-06-22T13:01:36;34.90;62.90
6863;DHT22;3470;48.738;9.616;2023-06-22T13:04:03;34.20;63.60
6863;DHT22;3470;48.738;9.616;2023-06-22T19:43:56;24.50;80.90
6863;DHT22;3470;48.738;9.616;2023-06-22T19:46:31;24.20;81.80
6863;DHT22;3470;48.738;9.616;2023-06-22T19:48:59;24.00;82.20
6863;DHT22;3470;48.738;9.616;2023-06-22T19:51:31;24.00;82.30
6863;DHT22;3470;48.738;9.616;2023-06-22T19:54:06;23.90;83.00
6863;DHT22;3470;48.738;9.616;2023-06-22T19:56:32;23.80;83.60
6863;DHT22;3470;48.738;9.616;2023-06-22T19:59:15;23.70;84.10
6863;DHT22;3470;48.738;9.616;2023-06-22T20:01:45;23.60;84.80
6863;DHT22;3470;48.738;9.616;2023-06-22T20:04:11;23.40;85.30
6863;DHT22;3470;48.738;9.616;2023-06-22T20:06:37;23.30;86.00
6863;DHT22;3470;48.738;9.616;2023-06-22T20:09:04;23.30;86.30
6863;DHT22;3470;48.738;9.616;2023-06-22T20:11:33;23.20;86.80
6863;DHT22;3470;48.738;9.616;2023-06-22T20:13:59;23.10;87.30
6863;DHT22;3470;48.738;9.616;2023-06-22T20:16:26;23.20;87.90
6863;DHT22;3470;48.738;9.616;2023-06-22T20:19:05;23.10;88.40
6863;DHT22;3470;48.738;9.616;2023-06-22T20:21:31;23.00;89.10
6863;DHT22;3470;48.738;9.616;2023-06-22T20:24:05;23.00;89.30
6863;DHT22;3470;48.738;9.616;2023-06-22T20:26:41;23.00;89.80
6863;DHT22;3470;48.738;9.616;2023-06-22T20:29:30;22.90;90.00
6863;DHT22;3470;48.738;9.616;2023-06-22T20:32:10;22.90;89.70
